Algiers, Indiana
Current Conditions -  °F | °C
As of 11:35 PM on Wednesday 17 Dec 2014 (Local Time) from KDCY Reporting Station
Overcast Overcast  
Wind Chill: -8°   Ceiling: 1300
Heat Index: -3°   Visibility: 10mi
Dew Point: -7°   Wind: 10mph
Humidity: 77%   Direction: 30°NNE
Pressure: 30.3"   Gusts: NA
Location:  38.4723°N, 87.3105°W
Report Text: KDCY 180535Z AUTO 03009KT 10SM OVC013 M03/M06 A3030 RMK AO2 T10291065
Loading
Personal Weather Stations






























Interactive Weather Map New forecast layout! Learn more

10-Day Weather Forecast

Advertisements
Track Severe Weather on mobile